sensor_id;sensor_type;location;lat;lon;timestamp;noise_LAeq;noise_LA_min;noise_LA_max;noise_LA01;noise_LA95
60116;Laerm;62818;49.394;8.686;2022-09-09T00:00:38;54.29;44.43;62.66;;
60116;Laerm;62818;49.394;8.686;2022-09-09T00:03:30;53.00;44.27;63.30;;
60116;Laerm;62818;49.394;8.686;2022-09-09T00:04:40;54.70;44.47;63.48;;
60116;Laerm;62818;49.394;8.686;2022-09-09T00:06:06;53.94;41.75;63.67;;
60116;Laerm;62818;49.394;8.686;2022-09-09T00:07:16;52.84;41.53;63.19;;
60116;Laerm;62818;49.394;8.686;2022-09-09T00:08:35;53.23;41.46;63.07;;
60116;Laerm;62818;49.394;8.686;2022-09-09T00:09:48;52.74;40.88;63.20;;
60116;Laerm;62818;49.394;8.686;2022-09-09T00:11:01;53.48;41.41;63.25;;
60116;Laerm;62818;49.394;8.686;2022-09-09T00:17:02;53.29;41.26;63.60;;
60116;Laerm;62818;49.394;8.686;2022-09-09T00:22:36;53.78;42.71;63.66;;
60116;Laerm;62818;49.394;8.686;2022-09-09T00:23:54;54.02;44.23;63.89;;
60116;Laerm;62818;49.394;8.686;2022-09-09T00:25:11;55.27;45.17;63.54;;
60116;Laerm;62818;49.394;8.686;2022-09-09T00:27:45;54.19;44.43;63.24;;
60116;Laerm;62818;49.394;8.686;2022-09-09T00:31:29;54.03;44.43;63.61;;
60116;Laerm;62818;49.394;8.686;2022-09-09T00:32:31;54.72;44.11;63.30;;
60116;Laerm;62818;49.394;8.686;2022-09-09T00:33:39;53.68;44.23;63.92;;
60116;Laerm;62818;49.394;8.686;2022-09-09T00:35:10;53.67;43.94;64.47;;
60116;Laerm;62818;49.394;8.686;2022-09-09T00:36:25;52.99;44.42;63.87;;
60116;Laerm;62818;49.394;8.686;2022-09-09T00:37:30;53.28;44.27;63.53;;
60116;Laerm;62818;49.394;8.686;2022-09-09T00:38:42;55.59;44.69;67.54;;
60116;Laerm;62818;49.394;8.686;2022-09-09T00:39:49;53.40;44.39;63.86;;
60116;Laerm;62818;49.394;8.686;2022-09-09T00:41:09;53.41;44.31;63.10;;
60116;Laerm;62818;49.394;8.686;2022-09-09T00:42:36;55.89;44.38;70.58;;
60116;Laerm;62818;49.394;8.686;2022-09-09T00:43:50;55.47;45.33;64.25;;
60116;Laerm;62818;49.394;8.686;2022-09-09T00:47:46;55.13;44.03;65.29;;
60116;Laerm;62818;49.394;8.686;2022-09-09T00:50:48;51.96;43.94;63.35;;
60116;Laerm;62818;49.394;8.686;2022-09-09T00:58:19;55.57;43.72;68.14;;
60116;Laerm;62818;49.394;8.686;2022-09-09T01:01:07;53.99;44.03;67.61;;
60116;Laerm;62818;49.394;8.686;2022-09-09T01:03:59;54.65;44.27;63.41;;
60116;Laerm;62818;49.394;8.686;2022-09-09T01:05:36;53.72;44.15;63.73;;
60116;Laerm;62818;49.394;8.686;2022-09-09T01:06:48;52.79;44.19;62.92;;
60116;Laerm;62818;49.394;8.686;2022-09-09T01:07:54;53.75;44.35;63.10;;
60116;Laerm;62818;49.394;8.686;2022-09-09T01:10:58;53.80;44.43;62.67;;
60116;Laerm;62818;49.394;8.686;2022-09-09T01:12:17;55.20;44.83;65.25;;
60116;Laerm;62818;49.394;8.686;2022-09-09T01:13:36;53.47;44.54;62.86;;
60116;Laerm;62818;49.394;8.686;2022-09-09T01:15:40;54.91;44.19;64.99;;
60116;Laerm;62818;49.394;8.686;2022-09-09T01:16:47;54.34;44.73;63.17;;
60116;Laerm;62818;49.394;8.686;2022-09-09T01:18:12;53.33;44.35;63.18;;
60116;Laerm;62818;49.394;8.686;2022-09-09T01:19:31;53.90;44.94;62.63;;
60116;Laerm;62818;49.394;8.686;2022-09-09T01:27:42;53.94;44.27;63.38;;
60116;Laerm;62818;49.394;8.686;2022-09-09T01:28:51;53.28;44.15;62.65;;
60116;Laerm;62818;49.394;8.686;2022-09-09T01:29:53;55.05;44.08;63.08;;
60116;Laerm;62818;49.394;8.686;2022-09-09T01:30:55;49.64;44.76;59.50;;
60116;Laerm;62818;49.394;8.686;2022-09-09T01:33:26;52.80;44.39;62.93;;
60116;Laerm;62818;49.394;8.686;2022-09-09T01:34:31;54.27;44.69;62.90;;
60116;Laerm;62818;49.394;8.686;2022-09-09T01:37:10;53.40;44.43;63.17;;
60116;Laerm;62818;49.394;8.686;2022-09-09T01:38:15;53.98;43.58;62.95;;
60116;Laerm;62818;49.394;8.686;2022-09-09T01:39:16;53.57;44.03;63.10;;
60116;Laerm;62818;49.394;8.686;2022-09-09T01:40:19;53.85;43.81;62.43;;
60116;Laerm;62818;49.394;8.686;2022-09-09T01:41:20;54.18;43.86;62.82;;
60116;Laerm;62818;49.394;8.686;2022-09-09T01:42:23;55.33;44.23;63.22;;
60116;Laerm;62818;49.394;8.686;2022-09-09T01:43:25;53.65;44.03;62.13;;
60116;Laerm;62818;49.394;8.686;2022-09-09T01:44:32;54.68;43.99;64.75;;
60116;Laerm;62818;49.394;8.686;2022-09-09T01:45:39;54.38;44.08;62.45;;
60116;Laerm;62818;49.394;8.686;2022-09-09T01:46:43;54.20;44.58;62.40;;
60116;Laerm;62818;49.394;8.686;2022-09-09T01:47:45;54.55;44.62;64.62;;
60116;Laerm;62818;49.394;8.686;2022-09-09T01:48:46;54.78;44.19;62.44;;
60116;Laerm;62818;49.394;8.686;2022-09-09T01:49:47;54.94;43.99;63.66;;
60116;Laerm;62818;49.394;8.686;2022-09-09T01:50:50;55.19;43.77;64.39;;
60116;Laerm;62818;49.394;8.686;2022-09-09T01:51:56;53.49;43.81;62.71;;
60116;Laerm;62818;49.394;8.686;2022-09-09T01:52:59;53.94;44.35;62.20;;
60116;Laerm;62818;49.394;8.686;2022-09-09T01:54:04;53.82;44.76;63.14;;
60116;Laerm;62818;49.394;8.686;2022-09-09T01:55:09;54.30;43.81;62.98;;
60116;Laerm;62818;49.394;8.686;2022-09-09T01:58:11;52.34;44.47;62.71;;
60116;Laerm;62818;49.394;8.686;2022-09-09T02:03:31;53.63;44.65;62.53;;
60116;Laerm;62818;49.394;8.686;2022-09-09T02:05:46;53.64;44.65;63.69;;
60116;Laerm;62818;49.394;8.686;2022-09-09T02:06:56;53.51;44.73;63.62;;
60116;Laerm;62818;49.394;8.686;2022-09-09T02:08:07;53.56;44.27;63.24;;
60116;Laerm;62818;49.394;8.686;2022-09-09T02:09:14;55.48;44.87;63.43;;
60116;Laerm;62818;49.394;8.686;2022-09-09T02:10:36;53.47;44.89;63.05;;
60116;Laerm;62818;49.394;8.686;2022-09-09T02:11:47;53.91;44.80;62.91;;
60116;Laerm;62818;49.394;8.686;2022-09-09T02:13:12;53.52;44.73;62.52;;
60116;Laerm;62818;49.394;8.686;2022-09-09T02:14:22;54.07;44.69;62.81;;
60116;Laerm;62818;49.394;8.686;2022-09-09T02:15:39;53.80;44.73;63.47;;
60116;Laerm;62818;49.394;8.686;2022-09-09T02:17:10;53.93;44.69;62.76;;
60116;Laerm;62818;49.394;8.686;2022-09-09T02:18:18;55.31;45.17;63.53;;
60116;Laerm;62818;49.394;8.686;2022-09-09T02:20:31;53.92;44.31;63.55;;
60116;Laerm;62818;49.394;8.686;2022-09-09T02:21:34;55.33;44.35;65.45;;
60116;Laerm;62818;49.394;8.686;2022-09-09T02:22:40;56.18;44.69;65.12;;
60116;Laerm;62818;49.394;8.686;2022-09-09T02:23:45;54.90;45.14;65.10;;
60116;Laerm;62818;49.394;8.686;2022-09-09T02:24:58;55.79;44.47;68.64;;
60116;Laerm;62818;49.394;8.686;2022-09-09T02:26:03;57.69;44.69;69.15;;
60116;Laerm;62818;49.394;8.686;2022-09-09T02:27:09;54.18;44.47;62.94;;
60116;Laerm;62818;49.394;8.686;2022-09-09T02:28:14;53.68;44.39;62.38;;
60116;Laerm;62818;49.394;8.686;2022-09-09T02:29:34;53.93;44.31;62.69;;
60116;Laerm;62818;49.394;8.686;2022-09-09T02:30:40;55.27;44.69;64.55;;
60116;Laerm;62818;49.394;8.686;2022-09-09T02:31:46;54.12;44.15;62.93;;
60116;Laerm;62818;49.394;8.686;2022-09-09T02:32:50;57.74;44.19;67.07;;
60116;Laerm;62818;49.394;8.686;2022-09-09T02:34:02;54.89;44.51;64.37;;
60116;Laerm;62818;49.394;8.686;2022-09-09T02:35:09;55.55;44.62;64.53;;
60116;Laerm;62818;49.394;8.686;2022-09-09T02:36:15;54.18;44.35;62.89;;
60116;Laerm;62818;49.394;8.686;2022-09-09T02:37:24;53.60;44.19;62.98;;
60116;Laerm;62818;49.394;8.686;2022-09-09T02:38:30;49.97;45.11;61.11;;
60116;Laerm;62818;49.394;8.686;2022-09-09T02:39:35;54.31;45.07;62.99;;
60116;Laerm;62818;49.394;8.686;2022-09-09T02:40:35;54.26;44.97;62.91;;
60116;Laerm;62818;49.394;8.686;2022-09-09T02:41:40;53.77;44.97;63.13;;
60116;Laerm;62818;49.394;8.686;2022-09-09T02:42:47;55.29;44.43;64.99;;
60116;Laerm;62818;49.394;8.686;2022-09-09T02:43:50;55.45;44.94;63.83;;
60116;Laerm;62818;49.394;8.686;2022-09-09T02:44:51;55.05;44.58;63.92;;
60116;Laerm;62818;49.394;8.686;2022-09-09T02:50:44;56.83;44.47;67.84;;
60116;Laerm;62818;49.394;8.686;2022-09-09T02:54:34;52.72;44.58;62.69;;
60116;Laerm;62818;49.394;8.686;2022-09-09T02:56:52;53.75;44.27;63.48;;
60116;Laerm;62818;49.394;8.686;2022-09-09T02:57:57;55.29;44.39;63.50;;
60116;Laerm;62818;49.394;8.686;2022-09-09T02:59:03;54.65;43.49;63.33;;
60116;Laerm;62818;49.394;8.686;2022-09-09T03:00:05;54.84;43.04;63.23;;
60116;Laerm;62818;49.394;8.686;2022-09-09T03:01:05;53.94;41.38;62.84;;
60116;Laerm;62818;49.394;8.686;2022-09-09T03:02:09;55.73;42.41;67.84;;
60116;Laerm;62818;49.394;8.686;2022-09-09T03:03:11;54.75;41.89;63.42;;
60116;Laerm;62818;49.394;8.686;2022-09-09T03:04:16;54.83;42.76;63.59;;
60116;Laerm;62818;49.394;8.686;2022-09-09T03:05:19;54.07;42.93;63.43;;
60116;Laerm;62818;49.394;8.686;2022-09-09T03:06:19;54.00;42.41;62.78;;
60116;Laerm;62818;49.394;8.686;2022-09-09T03:07:22;54.44;43.14;62.50;;
60116;Laerm;62818;49.394;8.686;2022-09-09T03:08:25;54.38;43.77;61.16;;
60116;Laerm;62818;49.394;8.686;2022-09-09T03:09:27;56.73;43.86;62.62;;
60116;Laerm;62818;49.394;8.686;2022-09-09T03:10:31;56.60;43.72;64.65;;
60116;Laerm;62818;49.394;8.686;2022-09-09T03:11:35;56.11;43.54;64.20;;
60116;Laerm;62818;49.394;8.686;2022-09-09T03:12:38;54.44;42.29;63.62;;
60116;Laerm;62818;49.394;8.686;2022-09-09T03:13:41;56.86;42.53;66.33;;
60116;Laerm;62818;49.394;8.686;2022-09-09T03:14:44;55.23;42.76;63.78;;
60116;Laerm;62818;49.394;8.686;2022-09-09T03:15:48;56.60;42.09;65.60;;
60116;Laerm;62818;49.394;8.686;2022-09-09T03:16:52;55.43;41.06;65.00;;
60116;Laerm;62818;49.394;8.686;2022-09-09T03:17:53;50.55;42.59;62.55;;
60116;Laerm;62818;49.394;8.686;2022-09-09T03:18:54;53.65;43.04;60.88;;
60116;Laerm;62818;49.394;8.686;2022-09-09T03:19:55;55.17;43.44;63.08;;
60116;Laerm;62818;49.394;8.686;2022-09-09T03:20:56;53.64;42.98;62.56;;
60116;Laerm;62818;49.394;8.686;2022-09-09T03:22:02;54.54;42.98;62.00;;
60116;Laerm;62818;49.394;8.686;2022-09-09T03:23:07;56.75;45.36;62.05;;
60116;Laerm;62818;49.394;8.686;2022-09-09T03:24:10;58.32;44.73;67.43;;
60116;Laerm;62818;49.394;8.686;2022-09-09T03:25:10;55.83;44.31;63.42;;
60116;Laerm;62818;49.394;8.686;2022-09-09T03:26:13;57.36;44.15;66.08;;
60116;Laerm;62818;49.394;8.686;2022-09-09T03:27:17;55.23;45.72;62.74;;
60116;Laerm;62818;49.394;8.686;2022-09-09T03:28:19;55.55;43.72;63.29;;
60116;Laerm;62818;49.394;8.686;2022-09-09T03:29:23;56.99;43.99;68.00;;
60116;Laerm;62818;49.394;8.686;2022-09-09T03:30:27;53.93;43.54;62.54;;
60116;Laerm;62818;49.394;8.686;2022-09-09T03:31:28;57.99;44.11;66.15;;
60116;Laerm;62818;49.394;8.686;2022-09-09T03:32:30;54.58;43.90;64.17;;
60116;Laerm;62818;49.394;8.686;2022-09-09T03:33:33;56.49;43.39;65.28;;
60116;Laerm;62818;49.394;8.686;2022-09-09T03:34:34;56.66;43.29;65.10;;
60116;Laerm;62818;49.394;8.686;2022-09-09T03:35:35;56.75;43.09;65.59;;
60116;Laerm;62818;49.394;8.686;2022-09-09T03:36:36;53.50;43.39;64.01;;
60116;Laerm;62818;49.394;8.686;2022-09-09T03:37:37;56.12;43.72;66.47;;
60116;Laerm;62818;49.394;8.686;2022-09-09T03:38:39;57.30;43.72;69.30;;
60116;Laerm;62818;49.394;8.686;2022-09-09T03:39:42;58.83;44.07;68.73;;
60116;Laerm;62818;49.394;8.686;2022-09-09T03:40:56;56.75;42.98;65.94;;
60116;Laerm;62818;49.394;8.686;2022-09-09T03:41:59;55.39;43.81;63.62;;
60116;Laerm;62818;49.394;8.686;2022-09-09T03:43:04;59.18;43.63;67.92;;
60116;Laerm;62818;49.394;8.686;2022-09-09T03:44:04;56.46;43.86;64.42;;
60116;Laerm;62818;49.394;8.686;2022-09-09T03:45:10;57.95;43.90;68.43;;
60116;Laerm;62818;49.394;8.686;2022-09-09T03:46:11;57.93;48.32;65.93;;
60116;Laerm;62818;49.394;8.686;2022-09-09T03:47:17;54.92;43.77;63.84;;
60116;Laerm;62818;49.394;8.686;2022-09-09T03:48:21;58.14;44.47;68.29;;
60116;Laerm;62818;49.394;8.686;2022-09-09T03:49:21;56.60;44.35;64.48;;
60116;Laerm;62818;49.394;8.686;2022-09-09T03:50:23;60.30;44.39;73.29;;
60116;Laerm;62818;49.394;8.686;2022-09-09T03:51:24;55.95;44.27;63.97;;
60116;Laerm;62818;49.394;8.686;2022-09-09T03:52:24;56.26;44.65;63.28;;
60116;Laerm;62818;49.394;8.686;2022-09-09T03:53:26;58.10;45.04;65.64;;
60116;Laerm;62818;49.394;8.686;2022-09-09T03:54:27;56.86;45.07;65.35;;
60116;Laerm;62818;49.394;8.686;2022-09-09T03:55:30;57.33;43.90;65.79;;
60116;Laerm;62818;49.394;8.686;2022-09-09T03:56:33;56.04;43.81;64.17;;
60116;Laerm;62818;49.394;8.686;2022-09-09T03:57:39;58.97;44.76;68.68;;
60116;Laerm;62818;49.394;8.686;2022-09-09T03:58:39;60.05;44.27;70.13;;
60116;Laerm;62818;49.394;8.686;2022-09-09T03:59:40;56.70;43.94;66.34;;
60116;Laerm;62818;49.394;8.686;2022-09-09T04:00:40;56.86;43.81;66.72;;
60116;Laerm;62818;49.394;8.686;2022-09-09T04:01:47;55.33;43.81;65.00;;
60116;Laerm;62818;49.394;8.686;2022-09-09T04:02:47;59.51;44.94;67.12;;
60116;Laerm;62818;49.394;8.686;2022-09-09T04:03:56;58.10;45.07;68.13;;
60116;Laerm;62818;49.394;8.686;2022-09-09T04:04:58;57.30;44.35;64.80;;
60116;Laerm;62818;49.394;8.686;2022-09-09T04:06:01;48.56;43.63;61.10;;
60116;Laerm;62818;49.394;8.686;2022-09-09T04:07:05;57.86;45.27;63.90;;
60116;Laerm;62818;49.394;8.686;2022-09-09T04:08:16;56.26;44.90;63.49;;
60116;Laerm;62818;49.394;8.686;2022-09-09T04:09:19;58.70;44.54;68.92;;
60116;Laerm;62818;49.394;8.686;2022-09-09T04:10:20;57.65;44.73;68.72;;
60116;Laerm;62818;49.394;8.686;2022-09-09T04:11:21;58.05;45.20;64.28;;
60116;Laerm;62818;49.394;8.686;2022-09-09T04:12:24;58.71;43.90;68.45;;
60116;Laerm;62818;49.394;8.686;2022-09-09T04:13:25;55.83;45.54;63.27;;
60116;Laerm;62818;49.394;8.686;2022-09-09T04:14:26;59.42;46.84;67.52;;
60116;Laerm;62818;49.394;8.686;2022-09-09T04:15:29;58.50;44.39;67.65;;
60116;Laerm;62818;49.394;8.686;2022-09-09T04:16:29;54.23;43.39;63.73;;
60116;Laerm;62818;49.394;8.686;2022-09-09T04:17:37;58.76;45.04;65.81;;
60116;Laerm;62818;49.394;8.686;2022-09-09T04:18:37;60.07;46.18;68.97;;
60116;Laerm;62818;49.394;8.686;2022-09-09T04:19:38;54.68;44.23;63.88;;
60116;Laerm;62818;49.394;8.686;2022-09-09T04:20:41;55.95;44.11;63.90;;
60116;Laerm;62818;49.394;8.686;2022-09-09T04:21:44;57.46;44.35;66.04;;
60116;Laerm;62818;49.394;8.686;2022-09-09T04:22:45;54.93;44.19;65.47;;
60116;Laerm;62818;49.394;8.686;2022-09-09T04:23:50;56.81;43.94;67.19;;
60116;Laerm;62818;49.394;8.686;2022-09-09T04:24:54;59.06;46.05;69.81;;
60116;Laerm;62818;49.394;8.686;2022-09-09T04:25:59;59.53;44.62;67.16;;
60116;Laerm;62818;49.394;8.686;2022-09-09T04:27:00;57.09;44.83;66.11;;
60116;Laerm;62818;49.394;8.686;2022-09-09T04:28:04;59.20;46.38;67.95;;
60116;Laerm;62818;49.394;8.686;2022-09-09T04:29:04;58.24;44.65;64.32;;
60116;Laerm;62818;49.394;8.686;2022-09-09T04:30:06;56.80;44.23;64.15;;
60116;Laerm;62818;49.394;8.686;2022-09-09T04:31:14;58.35;45.01;66.78;;
60116;Laerm;62818;49.394;8.686;2022-09-09T04:32:18;59.09;46.45;65.92;;
60116;Laerm;62818;49.394;8.686;2022-09-09T04:33:22;58.57;44.42;66.05;;
60116;Laerm;62818;49.394;8.686;2022-09-09T04:34:25;54.36;43.44;64.39;;
60116;Laerm;62818;49.394;8.686;2022-09-09T04:35:31;59.05;44.94;64.22;;
60116;Laerm;62818;49.394;8.686;2022-09-09T04:36:34;57.31;44.65;65.97;;
60116;Laerm;62818;49.394;8.686;2022-09-09T04:37:38;59.31;44.97;68.28;;
60116;Laerm;62818;49.394;8.686;2022-09-09T04:38:41;60.03;46.15;66.41;;
60116;Laerm;62818;49.394;8.686;2022-09-09T04:39:42;59.87;46.52;66.68;;
60116;Laerm;62818;49.394;8.686;2022-09-09T04:40:50;57.93;45.30;65.43;;
60116;Laerm;62818;49.394;8.686;2022-09-09T04:41:54;56.46;46.25;64.24;;
60116;Laerm;62818;49.394;8.686;2022-09-09T04:43:01;59.07;44.51;68.06;;
60116;Laerm;62818;49.394;8.686;2022-09-09T04:44:05;60.11;45.23;68.56;;
60116;Laerm;62818;49.394;8.686;2022-09-09T04:45:06;55.91;44.27;63.85;;
60116;Laerm;62818;49.394;8.686;2022-09-09T04:46:11;60.63;44.90;67.77;;
60116;Laerm;62818;49.394;8.686;2022-09-09T04:47:12;60.61;46.50;68.30;;
60116;Laerm;62818;49.394;8.686;2022-09-09T04:48:16;57.79;45.01;66.67;;
60116;Laerm;62818;49.394;8.686;2022-09-09T04:49:17;60.04;45.69;68.51;;
60116;Laerm;62818;49.394;8.686;2022-09-09T04:50:20;60.46;45.80;67.87;;
60116;Laerm;62818;49.394;8.686;2022-09-09T04:51:24;59.60;45.07;66.34;;
60116;Laerm;62818;49.394;8.686;2022-09-09T04:52:25;57.24;45.23;64.62;;
60116;Laerm;62818;49.394;8.686;2022-09-09T04:53:30;60.39;50.32;66.61;;
60116;Laerm;62818;49.394;8.686;2022-09-09T04:54:31;60.80;49.64;67.20;;
60116;Laerm;62818;49.394;8.686;2022-09-09T04:55:35;56.73;45.25;64.73;;
60116;Laerm;62818;49.394;8.686;2022-09-09T04:56:36;58.92;44.58;66.82;;
60116;Laerm;62818;49.394;8.686;2022-09-09T04:57:42;61.51;46.40;68.21;;
60116;Laerm;62818;49.394;8.686;2022-09-09T04:58:47;59.01;44.76;67.05;;
60116;Laerm;62818;49.394;8.686;2022-09-09T04:59:47;59.10;46.84;67.20;;
60116;Laerm;62818;49.394;8.686;2022-09-09T05:00:50;60.15;48.37;65.98;;
60116;Laerm;62818;49.394;8.686;2022-09-09T05:01:52;61.02;48.10;70.16;;
60116;Laerm;62818;49.394;8.686;2022-09-09T05:02:54;57.90;45.60;64.76;;
60116;Laerm;62818;49.394;8.686;2022-09-09T05:03:57;58.43;49.59;65.82;;
60116;Laerm;62818;49.394;8.686;2022-09-09T05:05:00;59.36;47.76;66.43;;
60116;Laerm;62818;49.394;8.686;2022-09-09T05:06:17;58.64;46.66;68.28;;
60116;Laerm;62818;49.394;8.686;2022-09-09T05:07:19;59.42;46.02;67.22;;
60116;Laerm;62818;49.394;8.686;2022-09-09T05:08:19;60.08;49.92;65.65;;
60116;Laerm;62818;49.394;8.686;2022-09-09T05:09:21;58.59;48.49;67.03;;
60116;Laerm;62818;49.394;8.686;2022-09-09T05:10:21;56.96;47.04;65.03;;
60116;Laerm;62818;49.394;8.686;2022-09-09T05:11:29;58.61;47.04;66.03;;
60116;Laerm;62818;49.394;8.686;2022-09-09T05:12:30;59.76;47.42;67.68;;
60116;Laerm;62818;49.394;8.686;2022-09-09T05:13:34;60.07;48.49;73.30;;
60116;Laerm;62818;49.394;8.686;2022-09-09T05:14:39;60.40;48.32;68.02;;
60116;Laerm;62818;49.394;8.686;2022-09-09T05:15:41;58.56;47.08;65.80;;
60116;Laerm;62818;49.394;8.686;2022-09-09T05:16:46;57.15;47.48;65.44;;
60116;Laerm;62818;49.394;8.686;2022-09-09T05:17:49;60.88;49.11;66.05;;
60116;Laerm;62818;49.394;8.686;2022-09-09T05:18:54;61.65;49.41;69.93;;
60116;Laerm;62818;49.394;8.686;2022-09-09T05:19:54;60.02;48.58;65.60;;
60116;Laerm;62818;49.394;8.686;2022-09-09T05:20:59;57.17;47.96;64.12;;
60116;Laerm;62818;49.394;8.686;2022-09-09T05:22:02;60.46;48.32;66.67;;
60116;Laerm;62818;49.394;8.686;2022-09-09T05:23:05;61.05;48.83;68.18;;
60116;Laerm;62818;49.394;8.686;2022-09-09T05:24:08;57.18;47.59;64.23;;
60116;Laerm;62818;49.394;8.686;2022-09-09T05:25:08;61.04;49.39;68.34;;
60116;Laerm;62818;49.394;8.686;2022-09-09T05:26:17;58.28;47.98;64.90;;
60116;Laerm;62818;49.394;8.686;2022-09-09T05:27:20;58.62;47.00;66.85;;
60116;Laerm;62818;49.394;8.686;2022-09-09T05:28:23;59.44;49.34;67.40;;
60116;Laerm;62818;49.394;8.686;2022-09-09T05:29:27;60.61;50.77;66.53;;
60116;Laerm;62818;49.394;8.686;2022-09-09T05:30:32;60.87;47.42;73.70;;
60116;Laerm;62818;49.394;8.686;2022-09-09T05:31:33;60.09;49.69;70.16;;
60116;Laerm;62818;49.394;8.686;2022-09-09T05:32:34;58.48;48.61;66.94;;
60116;Laerm;62818;49.394;8.686;2022-09-09T05:33:35;59.49;47.20;66.49;;
60116;Laerm;62818;49.394;8.686;2022-09-09T05:34:40;56.59;47.36;64.56;;
60116;Laerm;62818;49.394;8.686;2022-09-09T05:35:43;60.37;47.79;68.28;;
60116;Laerm;62818;49.394;8.686;2022-09-09T05:36:48;59.79;47.65;66.74;;
60116;Laerm;62818;49.394;8.686;2022-09-09T05:37:49;61.00;49.36;71.49;;
60116;Laerm;62818;49.394;8.686;2022-09-09T05:38:49;58.04;47.81;67.44;;
60116;Laerm;62818;49.394;8.686;2022-09-09T05:39:53;60.41;53.69;66.45;;
60116;Laerm;62818;49.394;8.686;2022-09-09T05:40:56;60.14;47.76;67.44;;
60116;Laerm;62818;49.394;8.686;2022-09-09T05:41:57;59.47;52.84;65.09;;
60116;Laerm;62818;49.394;8.686;2022-09-09T05:43:00;62.12;53.63;72.67;;
60116;Laerm;62818;49.394;8.686;2022-09-09T05:44:01;61.52;51.23;68.79;;
60116;Laerm;62818;49.394;8.686;2022-09-09T05:45:02;56.98;48.57;65.41;;
60116;Laerm;62818;49.394;8.686;2022-09-09T05:46:08;59.62;49.29;68.36;;
60116;Laerm;62818;49.394;8.686;2022-09-09T05:47:12;59.65;47.04;65.37;;
60116;Laerm;62818;49.394;8.686;2022-09-09T05:48:14;56.72;46.61;65.05;;
60116;Laerm;62818;49.394;8.686;2022-09-09T05:49:17;59.73;48.77;65.85;;
60116;Laerm;62818;49.394;8.686;2022-09-09T05:50:20;60.65;47.50;65.47;;
60116;Laerm;62818;49.394;8.686;2022-09-09T05:51:29;59.07;47.67;67.51;;
60116;Laerm;62818;49.394;8.686;2022-09-09T05:52:32;55.88;47.06;63.11;;
60116;Laerm;62818;49.394;8.686;2022-09-09T05:53:33;61.51;51.11;70.53;;
60116;Laerm;62818;49.394;8.686;2022-09-09T05:54:39;60.24;47.30;66.57;;
60116;Laerm;62818;49.394;8.686;2022-09-09T05:55:41;57.66;45.39;65.59;;
60116;Laerm;62818;49.394;8.686;2022-09-09T05:56:43;58.10;47.70;64.97;;
60116;Laerm;62818;49.394;8.686;2022-09-09T05:57:53;60.03;46.69;67.15;;
60116;Laerm;62818;49.394;8.686;2022-09-09T05:58:58;59.38;46.52;69.52;;
60116;Laerm;62818;49.394;8.686;2022-09-09T06:00:00;57.57;46.71;65.51;;
60116;Laerm;62818;49.394;8.686;2022-09-09T06:01:07;58.90;48.79;66.25;;
60116;Laerm;62818;49.394;8.686;2022-09-09T06:02:09;60.31;48.07;66.46;;
60116;Laerm;62818;49.394;8.686;2022-09-09T06:03:12;57.22;46.64;66.02;;
60116;Laerm;62818;49.394;8.686;2022-09-09T06:04:18;57.85;46.13;64.66;;
60116;Laerm;62818;49.394;8.686;2022-09-09T06:05:19;58.04;47.05;64.53;;
60116;Laerm;62818;49.394;8.686;2022-09-09T06:06:25;58.91;45.39;67.12;;
60116;Laerm;62818;49.394;8.686;2022-09-09T06:07:26;57.24;47.00;64.67;;
60116;Laerm;62818;49.394;8.686;2022-09-09T06:08:31;58.96;48.96;66.10;;
60116;Laerm;62818;49.394;8.686;2022-09-09T06:09:32;59.73;47.24;67.30;;
60116;Laerm;62818;49.394;8.686;2022-09-09T06:10:35;58.85;46.10;67.86;;
60116;Laerm;62818;49.394;8.686;2022-09-09T06:11:39;59.68;48.40;67.64;;
60116;Laerm;62818;49.394;8.686;2022-09-09T06:12:44;57.42;46.76;64.05;;
60116;Laerm;62818;49.394;8.686;2022-09-09T06:13:45;55.92;45.91;65.42;;
60116;Laerm;62818;49.394;8.686;2022-09-09T06:14:46;58.53;46.96;67.11;;
60116;Laerm;62818;49.394;8.686;2022-09-09T06:15:52;58.06;47.70;65.33;;
60116;Laerm;62818;49.394;8.686;2022-09-09T06:16:55;58.94;48.85;65.76;;
60116;Laerm;62818;49.394;8.686;2022-09-09T06:17:59;57.13;46.80;65.67;;
60116;Laerm;62818;49.394;8.686;2022-09-09T06:19:01;60.20;50.36;69.91;;
60116;Laerm;62818;49.394;8.686;2022-09-09T06:20:03;58.56;48.37;65.57;;
60116;Laerm;62818;49.394;8.686;2022-09-09T06:21:15;57.11;47.00;64.21;;
60116;Laerm;62818;49.394;8.686;2022-09-09T06:22:18;58.66;47.26;65.33;;
60116;Laerm;62818;49.394;8.686;2022-09-09T06:23:21;58.59;51.39;64.09;;
60116;Laerm;62818;49.394;8.686;2022-09-09T06:24:22;59.17;46.08;67.64;;
60116;Laerm;62818;49.394;8.686;2022-09-09T06:25:22;56.95;45.51;65.62;;
60116;Laerm;62818;49.394;8.686;2022-09-09T06:26:30;58.39;45.91;65.41;;
60116;Laerm;62818;49.394;8.686;2022-09-09T06:27:33;59.02;47.30;65.79;;
60116;Laerm;62818;49.394;8.686;2022-09-09T06:28:34;58.12;46.69;69.01;;
60116;Laerm;62818;49.394;8.686;2022-09-09T06:29:35;58.06;46.48;64.40;;
60116;Laerm;62818;49.394;8.686;2022-09-09T06:30:35;58.72;46.10;64.86;;
60116;Laerm;62818;49.394;8.686;2022-09-09T06:31:37;56.57;45.89;63.24;;
60116;Laerm;62818;49.394;8.686;2022-09-09T06:32:38;56.69;44.62;62.76;;
60116;Laerm;62818;49.394;8.686;2022-09-09T06:33:42;59.34;44.73;68.33;;
60116;Laerm;62818;49.394;8.686;2022-09-09T06:34:44;55.79;44.97;62.68;;
60116;Laerm;62818;49.394;8.686;2022-09-09T06:35:52;58.75;46.63;70.61;;
60116;Laerm;62818;49.394;8.686;2022-09-09T06:36:53;58.79;53.26;63.95;;
60116;Laerm;62818;49.394;8.686;2022-09-09T06:37:54;60.54;45.01;78.12;;
60116;Laerm;62818;49.394;8.686;2022-09-09T06:38:55;56.58;45.04;65.37;;
60116;Laerm;62818;49.394;8.686;2022-09-09T06:40:01;58.35;47.70;69.18;;
60116;Laerm;62818;49.394;8.686;2022-09-09T06:41:04;59.13;46.57;66.33;;
60116;Laerm;62818;49.394;8.686;2022-09-09T06:42:06;55.70;44.73;64.04;;
60116;Laerm;62818;49.394;8.686;2022-09-09T06:43:09;59.10;49.62;64.61;;
60116;Laerm;62818;49.394;8.686;2022-09-09T06:44:10;58.50;49.96;64.06;;
60116;Laerm;62818;49.394;8.686;2022-09-09T06:45:12;56.72;46.15;66.06;;
60116;Laerm;62818;49.394;8.686;2022-09-09T06:46:24;59.03;44.54;68.96;;
60116;Laerm;62818;49.394;8.686;2022-09-09T06:47:28;58.87;49.41;65.57;;
60116;Laerm;62818;49.394;8.686;2022-09-09T06:48:33;58.69;46.84;66.44;;
60116;Laerm;62818;49.394;8.686;2022-09-09T06:49:34;56.13;44.94;64.74;;
60116;Laerm;62818;49.394;8.686;2022-09-09T06:50:35;58.67;50.56;64.08;;
60116;Laerm;62818;49.394;8.686;2022-09-09T06:51:39;55.93;45.42;61.98;;
60116;Laerm;62818;49.394;8.686;2022-09-09T06:52:48;56.99;45.07;65.89;;
60116;Laerm;62818;49.394;8.686;2022-09-09T06:53:59;56.84;44.80;65.70;;
60116;Laerm;62818;49.394;8.686;2022-09-09T06:55:00;59.11;51.65;63.99;;
60116;Laerm;62818;49.394;8.686;2022-09-09T06:57:10;56.48;45.11;65.62;;
60116;Laerm;62818;49.394;8.686;2022-09-09T06:58:11;56.60;44.65;64.68;;
60116;Laerm;62818;49.394;8.686;2022-09-09T06:59:12;60.12;49.53;65.96;;
60116;Laerm;62818;49.394;8.686;2022-09-09T07:00:13;55.67;44.58;63.67;;
60116;Laerm;62818;49.394;8.686;2022-09-09T07:01:21;55.12;43.09;64.49;;
60116;Laerm;62818;49.394;8.686;2022-09-09T07:02:21;59.71;47.40;65.75;;
60116;Laerm;62818;49.394;8.686;2022-09-09T07:03:27;56.56;44.35;66.69;;
60116;Laerm;62818;49.394;8.686;2022-09-09T07:04:27;55.99;45.42;64.47;;